Time;durP1;ratioP1;P1;durP2;ratioP2;P2;SDS_P1;SDS_P2;PMS_P1;PMS_P2;Temp;Humidity;BMP_temperature;BMP_pressure;BME280_temperature;BME280_humidity;BME280_pressure;Samples;Min_cycle;Max_cycle;Signal;HPM_P1;HPM_P2
2022/01/31 00:01:11;;;;;;;6.80;4.87;;;;;;;;;;5051758;28;20442;-78
2022/01/31 00:03:38;;;;;;;9.27;4.60;;;;;;;;;;5057906;28;20499;-78
2022/01/31 00:06:05;;;;;;;14.93;5.97;;;;;;;;;;5069471;28;20851;-79
2022/01/31 00:08:34;;;;;;;13.80;5.80;;;;;;;;;;5058537;28;20489;-79
2022/01/31 00:11:01;;;;;;;13.00;5.67;;;;;;;;;;5071824;28;20480;-78
2022/01/31 00:13:34;;;;;;;10.33;5.10;;;;;;;;;;5063483;28;20533;-78
2022/01/31 00:16:02;;;;;;;12.00;4.90;;;;;;;;;;5051508;28;20458;-80
2022/01/31 00:18:29;;;;;;;11.17;5.17;;;;;;;;;;5051580;28;20470;-78
2022/01/31 00:20:56;;;;;;;9.83;5.13;;;;;;;;;;5051401;28;20462;-78
2022/01/31 00:23:23;;;;;;;9.73;5.50;;;;;;;;;;5050842;28;21049;-78
2022/01/31 00:25:52;;;;;;;14.70;5.80;;;;;;;;;;5051338;28;20438;-79
2022/01/31 00:28:19;;;;;;;13.00;5.60;;;;;;;;;;5051290;28;20532;-78
2022/01/31 00:30:47;;;;;;;8.30;5.33;;;;;;;;;;5051084;28;20430;-78
2022/01/31 00:33:14;;;;;;;14.20;5.97;;;;;;;;;;5050636;28;20450;-78
2022/01/31 00:35:41;;;;;;;8.70;6.80;;;;;;;;;;5051354;28;20454;-78
2022/01/31 00:38:08;;;;;;;8.73;6.57;;;;;;;;;;5050846;28;20435;-79
2022/01/31 00:40:41;;;;;;;12.90;6.00;;;;;;;;;;5050993;28;20492;-78
2022/01/31 00:43:12;;;;;;;8.60;5.30;;;;;;;;;;5050905;28;20824;-78
2022/01/31 00:45:45;;;;;;;10.47;5.60;;;;;;;;;;5050655;28;20943;-79
2022/01/31 00:48:17;;;;;;;12.57;5.20;;;;;;;;;;5051146;28;20492;-79
2022/01/31 00:50:47;;;;;;;11.03;4.90;;;;;;;;;;5051284;28;20978;-80
2022/01/31 00:53:14;;;;;;;11.97;5.13;;;;;;;;;;5050862;28;20457;-78
2022/01/31 00:55:41;;;;;;;7.33;5.07;;;;;;;;;;5051098;28;20545;-78
2022/01/31 00:58:10;;;;;;;11.43;5.97;;;;;;;;;;5067137;28;20458;-78
2022/01/31 01:00:37;;;;;;;11.57;6.43;;;;;;;;;;5065982;28;20827;-80
2022/01/31 01:03:04;;;;;;;11.03;5.40;;;;;;;;;;5069300;28;20491;-78
2022/01/31 01:05:31;;;;;;;12.10;6.20;;;;;;;;;;5071534;28;20445;-78
2022/01/31 01:07:58;;;;;;;11.40;5.47;;;;;;;;;;5070687;28;20429;-78
2022/01/31 01:10:26;;;;;;;11.50;5.93;;;;;;;;;;5071276;28;20444;-78
2022/01/31 01:12:54;;;;;;;11.00;5.43;;;;;;;;;;5070781;28;20461;-78
2022/01/31 01:15:22;;;;;;;10.90;5.77;;;;;;;;;;5071287;28;20454;-78
2022/01/31 01:17:49;;;;;;;9.33;5.50;;;;;;;;;;5070656;28;20879;-78
2022/01/31 01:20:17;;;;;;;12.93;5.23;;;;;;;;;;5070495;28;20453;-78
2022/01/31 01:22:44;;;;;;;10.80;5.60;;;;;;;;;;5069844;28;20449;-78
2022/01/31 01:25:13;;;;;;;11.77;6.17;;;;;;;;;;5070280;28;20515;-79
2022/01/31 01:27:41;;;;;;;11.67;5.70;;;;;;;;;;5070212;28;20868;-78
2022/01/31 01:30:10;;;;;;;11.27;6.00;;;;;;;;;;5070205;28;20480;-78
2022/01/31 01:32:47;;;;;;;13.47;6.03;;;;;;;;;;5070150;28;20453;-78
2022/01/31 01:35:15;;;;;;;11.23;6.00;;;;;;;;;;5070568;28;20464;-78
2022/01/31 01:37:42;;;;;;;12.27;6.37;;;;;;;;;;5070286;28;20464;-77
2022/01/31 01:40:09;;;;;;;9.93;5.43;;;;;;;;;;5070323;28;20945;-78
2022/01/31 01:42:36;;;;;;;11.03;6.23;;;;;;;;;;5070183;28;20447;-77
2022/01/31 01:45:04;;;;;;;9.77;6.70;;;;;;;;;;5070406;28;20444;-77
2022/01/31 01:47:31;;;;;;;10.80;6.00;;;;;;;;;;5069805;28;20522;-77
2022/01/31 01:50:00;;;;;;;12.07;5.93;;;;;;;;;;5069636;28;20489;-77
2022/01/31 01:52:27;;;;;;;11.60;6.40;;;;;;;;;;5069635;28;20491;-76
2022/01/31 01:54:54;;;;;;;9.50;5.73;;;;;;;;;;5069532;28;20802;-76
2022/01/31 01:57:23;;;;;;;9.40;6.03;;;;;;;;;;5069577;28;20510;-76
2022/01/31 01:59:54;;;;;;;11.73;6.20;;;;;;;;;;5070054;28;20460;-77
2022/01/31 02:02:22;;;;;;;10.43;6.67;;;;;;;;;;5070328;28;20445;-76
2022/01/31 02:04:49;;;;;;;10.53;6.60;;;;;;;;;;5069076;28;20528;-78
2022/01/31 02:07:18;;;;;;;14.37;7.50;;;;;;;;;;5070153;28;20449;-78
2022/01/31 02:09:52;;;;;;;10.60;6.37;;;;;;;;;;5069328;28;20482;-76
2022/01/31 02:12:19;;;;;;;12.70;6.50;;;;;;;;;;5069661;28;20520;-75
2022/01/31 02:14:46;;;;;;;9.80;6.30;;;;;;;;;;5069210;28;20434;-77
2022/01/31 02:17:13;;;;;;;11.93;5.80;;;;;;;;;;5069524;28;20891;-78
2022/01/31 02:19:40;;;;;;;8.23;5.93;;;;;;;;;;5069890;28;20964;-79
2022/01/31 02:22:08;;;;;;;11.47;6.00;;;;;;;;;;5069555;28;20453;-76
2022/01/31 02:24:35;;;;;;;14.00;6.50;;;;;;;;;;5069393;28;20453;-76
2022/01/31 02:27:03;;;;;;;7.03;5.00;;;;;;;;;;5069530;28;20950;-77
2022/01/31 02:29:30;;;;;;;8.13;5.40;;;;;;;;;;5069377;28;20581;-79
2022/01/31 02:31:57;;;;;;;11.93;7.20;;;;;;;;;;5069274;28;20468;-79
2022/01/31 02:34:24;;;;;;;10.70;5.80;;;;;;;;;;5069050;28;20442;-78
2022/01/31 02:36:51;;;;;;;10.50;5.73;;;;;;;;;;5069063;28;20514;-78
2022/01/31 02:39:19;;;;;;;12.50;6.67;;;;;;;;;;5069139;28;20481;-78
2022/01/31 02:41:48;;;;;;;9.33;6.03;;;;;;;;;;5069184;28;20445;-77
2022/01/31 02:44:16;;;;;;;10.13;6.07;;;;;;;;;;5069315;28;20853;-78
2022/01/31 02:46:49;;;;;;;9.73;6.07;;;;;;;;;;5069178;28;20804;-77
2022/01/31 02:49:18;;;;;;;11.93;6.00;;;;;;;;;;5069271;28;20488;-78
2022/01/31 02:51:49;;;;;;;10.50;5.87;;;;;;;;;;5069928;28;20453;-77
2022/01/31 02:54:16;;;;;;;8.60;5.93;;;;;;;;;;5069142;28;20460;-79
2022/01/31 02:56:45;;;;;;;8.63;6.13;;;;;;;;;;5069271;28;20986;-79
2022/01/31 02:59:12;;;;;;;12.80;6.37;;;;;;;;;;5069801;28;20844;-77
2022/01/31 03:01:39;;;;;;;13.50;7.47;;;;;;;;;;5069110;28;20434;-78
2022/01/31 03:04:07;;;;;;;9.30;6.47;;;;;;;;;;5069502;28;20517;-79
2022/01/31 03:06:34;;;;;;;10.73;6.13;;;;;;;;;;5069191;28;20449;-77
2022/01/31 03:09:01;;;;;;;8.00;5.80;;;;;;;;;;5068664;28;21243;-78
2022/01/31 03:11:28;;;;;;;12.47;5.47;;;;;;;;;;5068791;28;20457;-78
2022/01/31 03:13:57;;;;;;;11.57;5.93;;;;;;;;;;5068606;28;20441;-78
2022/01/31 03:16:24;;;;;;;16.80;6.00;;;;;;;;;;5069591;28;20449;-78
2022/01/31 03:18:51;;;;;;;9.17;5.20;;;;;;;;;;5069546;28;20969;-78
2022/01/31 03:21:18;;;;;;;11.67;6.50;;;;;;;;;;5070190;28;20453;-78
2022/01/31 03:23:46;;;;;;;7.47;6.30;;;;;;;;;;5073773;28;20544;-77
2022/01/31 03:26:13;;;;;;;18.67;6.97;;;;;;;;;;5073826;28;20950;-77
2022/01/31 03:28:40;;;;;;;8.20;5.50;;;;;;;;;;5072996;28;20468;-78
2022/01/31 03:31:09;;;;;;;10.90;5.60;;;;;;;;;;5073270;28;20450;-77
2022/01/31 03:33:36;;;;;;;9.67;5.50;;;;;;;;;;5072966;28;20971;-77
2022/01/31 03:36:03;;;;;;;9.77;5.70;;;;;;;;;;5073487;28;20475;-78
2022/01/31 03:38:30;;;;;;;10.50;5.43;;;;;;;;;;5072868;28;20469;-78
2022/01/31 03:40:58;;;;;;;9.83;6.07;;;;;;;;;;5072625;28;20540;-78
2022/01/31 03:43:25;;;;;;;12.80;5.77;;;;;;;;;;5072455;28;20449;-79
2022/01/31 03:45:52;;;;;;;15.23;6.33;;;;;;;;;;5072347;28;20551;-78
2022/01/31 03:48:20;;;;;;;8.97;5.27;;;;;;;;;;5072182;28;20465;-77
2022/01/31 03:50:47;;;;;;;12.77;5.27;;;;;;;;;;5071957;28;21041;-77
2022/01/31 03:53:14;;;;;;;10.03;5.43;;;;;;;;;;5071516;28;20454;-78
2022/01/31 03:55:41;;;;;;;7.70;5.07;;;;;;;;;;5072267;28;20445;-77
2022/01/31 03:58:08;;;;;;;7.90;5.90;;;;;;;;;;5069969;28;20452;-77
2022/01/31 04:00:35;;;;;;;9.00;5.13;;;;;;;;;;5069857;28;20472;-78
2022/01/31 04:03:02;;;;;;;8.83;5.70;;;;;;;;;;5060279;28;20439;-78
2022/01/31 04:05:31;;;;;;;12.63;6.57;;;;;;;;;;5072284;28;20449;-77
2022/01/31 04:07:59;;;;;;;9.77;5.60;;;;;;;;;;5071549;28;20479;-78
2022/01/31 04:10:26;;;;;;;10.60;5.73;;;;;;;;;;5071567;28;20987;-78
2022/01/31 04:12:53;;;;;;;8.40;5.43;;;;;;;;;;5071103;28;20944;-77
2022/01/31 04:15:20;;;;;;;11.17;6.10;;;;;;;;;;5071646;28;20498;-78
2022/01/31 04:17:47;;;;;;;7.53;5.33;;;;;;;;;;5071882;28;20457;-78
2022/01/31 04:20:14;;;;;;;8.10;5.80;;;;;;;;;;5071416;28;20453;-79
2022/01/31 04:22:49;;;;;;;10.50;5.03;;;;;;;;;;5071301;28;20463;-77
2022/01/31 04:25:28;;;;;;;12.67;6.80;;;;;;;;;;5071306;28;20991;-78
2022/01/31 04:28:02;;;;;;;9.40;5.40;;;;;;;;;;5070820;28;20457;-78
2022/01/31 04:30:29;;;;;;;11.00;6.40;;;;;;;;;;5068784;28;20486;-79
2022/01/31 04:32:56;;;;;;;8.70;6.03;;;;;;;;;;5066734;28;20438;-79
2022/01/31 04:35:23;;;;;;;8.07;4.83;;;;;;;;;;5051043;28;20450;-78
2022/01/31 04:37:51;;;;;;;6.73;5.53;;;;;;;;;;5051096;28;20450;-78
2022/01/31 04:40:18;;;;;;;9.90;5.03;;;;;;;;;;5051191;28;20492;-78
2022/01/31 04:42:46;;;;;;;10.47;5.40;;;;;;;;;;5050558;28;20961;-77
2022/01/31 04:45:13;;;;;;;8.73;5.73;;;;;;;;;;5050913;28;20524;-77
2022/01/31 04:47:40;;;;;;;16.80;6.87;;;;;;;;;;5050985;28;20511;-78
2022/01/31 04:50:08;;;;;;;11.23;6.53;;;;;;;;;;5050819;28;20486;-78
2022/01/31 04:52:35;;;;;;;11.70;6.43;;;;;;;;;;5050416;28;20543;-78
2022/01/31 04:55:04;;;;;;;8.47;5.70;;;;;;;;;;5050603;28;20951;-77
2022/01/31 04:57:31;;;;;;;9.83;4.80;;;;;;;;;;5051012;28;20447;-78
2022/01/31 04:59:58;;;;;;;12.73;5.00;;;;;;;;;;5050754;28;20603;-78
2022/01/31 05:02:25;;;;;;;11.63;5.40;;;;;;;;;;5050482;28;20454;-78
2022/01/31 05:04:52;;;;;;;7.73;5.03;;;;;;;;;;5067142;28;20537;-76
2022/01/31 05:07:21;;;;;;;7.33;5.00;;;;;;;;;;5070848;28;20870;-78
2022/01/31 05:09:48;;;;;;;8.87;5.60;;;;;;;;;;5070267;28;20482;-77
2022/01/31 05:12:16;;;;;;;11.77;8.80;;;;;;;;;;5070488;28;20469;-76
2022/01/31 05:14:43;;;;;;;9.77;5.97;;;;;;;;;;5070103;28;20449;-78
2022/01/31 05:17:10;;;;;;;8.80;5.63;;;;;;;;;;5070172;28;20438;-78
2022/01/31 05:19:38;;;;;;;9.00;4.97;;;;;;;;;;5070402;28;20458;-77
2022/01/31 05:22:05;;;;;;;10.33;5.97;;;;;;;;;;5070423;28;20452;-78
2022/01/31 05:24:32;;;;;;;10.50;5.23;;;;;;;;;;5070066;28;20441;-78
2022/01/31 05:26:59;;;;;;;5.50;4.60;;;;;;;;;;5070179;28;20519;-79
2022/01/31 05:29:27;;;;;;;8.23;5.40;;;;;;;;;;5069939;28;20469;-79
2022/01/31 05:31:54;;;;;;;5.60;4.47;;;;;;;;;;5069952;28;20446;-79
2022/01/31 05:34:23;;;;;;;8.90;5.33;;;;;;;;;;5070091;28;20999;-78
2022/01/31 05:36:54;;;;;;;6.67;5.07;;;;;;;;;;5069784;28;20460;-78
2022/01/31 05:39:23;;;;;;;7.00;6.10;;;;;;;;;;5069609;28;20473;-79
2022/01/31 05:41:50;;;;;;;7.90;5.23;;;;;;;;;;5070059;28;20461;-79
2022/01/31 05:44:17;;;;;;;12.37;6.87;;;;;;;;;;5069634;28;20856;-80
2022/01/31 05:46:45;;;;;;;7.57;4.23;;;;;;;;;;5067913;28;20450;-79
2022/01/31 05:49:13;;;;;;;8.57;5.43;;;;;;;;;;5069963;28;20488;-78
2022/01/31 05:51:47;;;;;;;9.10;5.37;;;;;;;;;;5069778;28;20435;-78
2022/01/31 05:54:14;;;;;;;7.50;4.47;;;;;;;;;;5073049;28;20418;-78
2022/01/31 05:56:41;;;;;;;7.53;5.43;;;;;;;;;;5082655;28;20438;-79
2022/01/31 05:59:08;;;;;;;9.80;5.87;;;;;;;;;;5080647;28;20477;-78
2022/01/31 06:01:38;;;;;;;10.10;4.70;;;;;;;;;;5081461;28;20452;-78
2022/01/31 06:04:06;;;;;;;7.30;4.53;;;;;;;;;;5084512;28;20509;-77
2022/01/31 06:06:34;;;;;;;5.23;3.73;;;;;;;;;;5079506;28;20456;-78
2022/01/31 06:09:01;;;;;;;5.60;5.00;;;;;;;;;;5070584;28;20477;-79
2022/01/31 06:11:28;;;;;;;5.37;4.27;;;;;;;;;;5070366;28;20999;-80
2022/01/31 06:13:56;;;;;;;5.13;4.63;;;;;;;;;;5069801;28;20930;-78
2022/01/31 06:16:23;;;;;;;7.50;4.27;;;;;;;;;;5070530;28;20536;-77
2022/01/31 06:18:50;;;;;;;5.53;4.23;;;;;;;;;;5070612;28;20456;-78
2022/01/31 06:21:18;;;;;;;6.70;4.50;;;;;;;;;;5071153;28;20516;-78
2022/01/31 06:23:45;;;;;;;7.73;4.93;;;;;;;;;;5070093;28;20867;-78
2022/01/31 06:26:13;;;;;;;9.93;5.03;;;;;;;;;;5070297;28;20441;-78
2022/01/31 06:28:40;;;;;;;9.10;5.27;;;;;;;;;;5069810;28;20984;-79
2022/01/31 06:31:07;;;;;;;6.87;4.83;;;;;;;;;;5069844;28;20484;-79
2022/01/31 06:33:34;;;;;;;6.97;4.97;;;;;;;;;;5069642;28;20441;-80
2022/01/31 06:36:01;;;;;;;9.40;4.37;;;;;;;;;;5070509;28;20446;-80
2022/01/31 06:38:30;;;;;;;11.00;4.70;;;;;;;;;;5069873;28;20470;-77
2022/01/31 06:40:57;;;;;;;7.20;5.30;;;;;;;;;;5068002;28;20465;-77
2022/01/31 06:43:24;;;;;;;11.43;5.30;;;;;;;;;;5065211;28;20461;-76
2022/01/31 06:45:51;;;;;;;7.17;4.20;;;;;;;;;;5067997;28;20459;-78
2022/01/31 06:48:18;;;;;;;7.67;5.00;;;;;;;;;;5066392;28;20466;-78
2022/01/31 06:50:45;;;;;;;7.93;5.27;;;;;;;;;;5069556;28;20849;-77
2022/01/31 06:53:13;;;;;;;9.30;5.37;;;;;;;;;;5069524;28;20945;-79
2022/01/31 06:55:41;;;;;;;8.10;4.73;;;;;;;;;;5070153;28;20880;-78
2022/01/31 06:58:08;;;;;;;9.00;5.37;;;;;;;;;;5067936;28;20450;-79
2022/01/31 07:00:35;;;;;;;5.70;4.80;;;;;;;;;;5070281;28;20523;-78
2022/01/31 07:03:05;;;;;;;5.77;4.93;;;;;;;;;;5073335;28;20438;-77
2022/01/31 07:05:33;;;;;;;8.80;4.50;;;;;;;;;;5074088;28;20445;-79
2022/01/31 07:08:00;;;;;;;8.30;5.27;;;;;;;;;;5074007;28;20445;-78
2022/01/31 07:10:27;;;;;;;10.30;6.43;;;;;;;;;;5073519;28;20508;-77
2022/01/31 07:12:57;;;;;;;6.63;5.00;;;;;;;;;;5061557;28;20447;-78
2022/01/31 07:15:24;;;;;;;9.80;5.30;;;;;;;;;;5053446;28;20995;-78
2022/01/31 07:17:51;;;;;;;11.03;5.20;;;;;;;;;;5053509;28;20446;-78
2022/01/31 07:20:24;;;;;;;8.00;4.60;;;;;;;;;;5053370;28;20493;-78
2022/01/31 07:22:57;;;;;;;12.07;5.03;;;;;;;;;;5052933;28;20449;-79
2022/01/31 07:25:35;;;;;;;10.00;5.30;;;;;;;;;;5054600;28;20450;-81
2022/01/31 07:28:04;;;;;;;5.40;4.00;;;;;;;;;;5054297;28;20460;-80
2022/01/31 07:30:31;;;;;;;5.77;4.60;;;;;;;;;;5054485;28;20482;-79
2022/01/31 07:32:58;;;;;;;4.47;3.70;;;;;;;;;;5054303;28;20778;-79
2022/01/31 07:35:26;;;;;;;4.30;3.90;;;;;;;;;;5052603;28;20462;-78
2022/01/31 07:37:53;;;;;;;9.13;4.43;;;;;;;;;;5053838;28;20922;-77
2022/01/31 07:40:20;;;;;;;5.83;4.07;;;;;;;;;;5053206;28;20449;-77
2022/01/31 07:42:47;;;;;;;3.50;3.20;;;;;;;;;;5053231;28;21016;-79
2022/01/31 07:45:15;;;;;;;3.83;3.30;;;;;;;;;;5053301;28;20458;-78
2022/01/31 07:47:42;;;;;;;13.70;4.03;;;;;;;;;;5053481;28;20972;-78
2022/01/31 07:50:11;;;;;;;4.90;3.83;;;;;;;;;;5053442;28;20467;-78
2022/01/31 07:52:38;;;;;;;3.97;3.57;;;;;;;;;;5069800;28;20434;-77
2022/01/31 07:55:06;;;;;;;3.73;3.10;;;;;;;;;;5080253;28;20466;-76
2022/01/31 07:57:34;;;;;;;4.77;3.27;;;;;;;;;;5094399;28;20437;-77
2022/01/31 08:00:01;;;;;;;5.27;2.90;;;;;;;;;;5085095;28;20481;-76
2022/01/31 08:02:30;;;;;;;5.40;2.80;;;;;;;;;;5082750;28;20454;-77
2022/01/31 08:04:57;;;;;;;3.50;2.73;;;;;;;;;;5089695;28;20525;-78
2022/01/31 08:07:24;;;;;;;6.37;2.47;;;;;;;;;;5074224;28;20446;-79
2022/01/31 08:09:51;;;;;;;4.17;2.50;;;;;;;;;;5075536;28;20474;-80
2022/01/31 08:12:18;;;;;;;3.47;2.30;;;;;;;;;;5074146;28;20486;-79
2022/01/31 08:14:47;;;;;;;6.10;2.80;;;;;;;;;;5073745;28;20450;-81
2022/01/31 08:17:14;;;;;;;3.67;2.70;;;;;;;;;;5075105;28;20443;-80
2022/01/31 08:19:43;;;;;;;2.97;2.63;;;;;;;;;;5074046;28;20467;-78
2022/01/31 08:22:10;;;;;;;2.77;2.40;;;;;;;;;;5073371;28;20460;-78
2022/01/31 08:24:37;;;;;;;2.10;2.00;;;;;;;;;;5072099;28;20878;-79
2022/01/31 08:27:04;;;;;;;2.03;1.83;;;;;;;;;;5072182;28;20448;-79
2022/01/31 08:29:35;;;;;;;3.50;2.27;;;;;;;;;;5071700;28;20473;-79
2022/01/31 08:32:06;;;;;;;2.13;1.70;;;;;;;;;;5072096;28;21001;-80
2022/01/31 08:37:31;;;;;;;2.13;1.93;;;;;;;;;;5029629;28;20524;-78
2022/01/31 08:39:58;;;;;;;1.80;1.80;;;;;;;;;;5062746;28;20469;-79
2022/01/31 08:42:28;;;;;;;2.33;2.13;;;;;;;;;;5073424;28;20440;-79
2022/01/31 08:44:55;;;;;;;1.60;1.50;;;;;;;;;;5073254;28;20439;-78
2022/01/31 08:47:22;;;;;;;1.50;1.50;;;;;;;;;;5072034;28;20445;-77
2022/01/31 08:49:49;;;;;;;1.87;1.80;;;;;;;;;;5071672;28;20583;-78
2022/01/31 08:52:16;;;;;;;2.20;2.10;;;;;;;;;;5071502;28;20488;-78
2022/01/31 08:54:44;;;;;;;2.20;1.97;;;;;;;;;;5071042;28;20437;-79
2022/01/31 08:57:11;;;;;;;1.77;1.67;;;;;;;;;;5071440;28;20441;-78
2022/01/31 08:59:43;;;;;;;1.90;1.80;;;;;;;;;;5071510;28;20457;-77
2022/01/31 09:02:14;;;;;;;2.30;2.10;;;;;;;;;;5071668;28;20485;-78
2022/01/31 09:04:47;;;;;;;1.83;1.73;;;;;;;;;;5071349;28;20540;-78
2022/01/31 09:07:15;;;;;;;1.83;1.73;;;;;;;;;;5071086;28;20460;-77
2022/01/31 09:09:43;;;;;;;1.70;1.60;;;;;;;;;;5071055;28;20513;-78
2022/01/31 09:12:15;;;;;;;1.90;1.73;;;;;;;;;;5070458;28;20482;-77
2022/01/31 09:14:42;;;;;;;2.30;2.00;;;;;;;;;;5060877;28;20462;-77
2022/01/31 09:17:09;;;;;;;1.50;1.50;;;;;;;;;;5066928;28;20453;-77
2022/01/31 09:19:36;;;;;;;1.70;1.60;;;;;;;;;;5065531;28;20474;-78
2022/01/31 09:22:04;;;;;;;2.20;1.97;;;;;;;;;;5066061;28;20442;-79
2022/01/31 09:24:37;;;;;;;2.90;1.77;;;;;;;;;;5050680;28;20446;-78
2022/01/31 09:27:04;;;;;;;2.80;2.10;;;;;;;;;;5051269;28;20489;-77
2022/01/31 09:29:32;;;;;;;4.10;1.90;;;;;;;;;;5050722;28;20466;-78
2022/01/31 09:32:02;;;;;;;1.80;1.70;;;;;;;;;;5063556;28;20481;-77
2022/01/31 09:34:30;;;;;;;2.40;1.70;;;;;;;;;;5067606;28;20991;-77
2022/01/31 09:36:57;;;;;;;3.20;3.00;;;;;;;;;;5071527;28;20454;-78
2022/01/31 09:39:24;;;;;;;2.50;1.90;;;;;;;;;;5055225;28;20976;-78
2022/01/31 09:41:54;;;;;;;2.47;2.30;;;;;;;;;;5050717;28;20957;-78
2022/01/31 09:44:27;;;;;;;2.87;2.37;;;;;;;;;;5050759;28;20435;-78
2022/01/31 09:47:07;;;;;;;2.10;1.90;;;;;;;;;;5064979;28;20949;-79
2022/01/31 09:49:34;;;;;;;1.90;1.80;;;;;;;;;;5067951;28;20560;-78
2022/01/31 09:52:01;;;;;;;2.23;2.07;;;;;;;;;;5069878;28;21007;-79
2022/01/31 09:54:28;;;;;;;2.10;1.70;;;;;;;;;;5072666;28;20453;-82
2022/01/31 09:56:55;;;;;;;2.37;2.17;;;;;;;;;;5075543;28;20470;-79
2022/01/31 09:59:22;;;;;;;1.83;1.73;;;;;;;;;;5074901;28;20465;-82
2022/01/31 10:01:52;;;;;;;2.40;2.20;;;;;;;;;;5075530;28;20441;-80
2022/01/31 10:04:21;;;;;;;2.60;2.40;;;;;;;;;;5075970;28;20454;-80
2022/01/31 10:06:49;;;;;;;2.13;1.90;;;;;;;;;;5076247;28;20483;-80
2022/01/31 10:09:18;;;;;;;3.00;2.27;;;;;;;;;;5075559;28;20504;-83
2022/01/31 10:11:49;;;;;;;2.00;1.90;;;;;;;;;;5065803;28;21129;-80
2022/01/31 10:17:02;;;;;;;2.10;1.90;;;;;;;;;;5068918;28;20598;-82
2022/01/31 10:19:32;;;;;;;2.70;2.20;;;;;;;;;;5075719;28;20457;-81
2022/01/31 10:22:01;;;;;;;2.57;2.37;;;;;;;;;;5074908;28;20936;-80
2022/01/31 10:24:28;;;;;;;1.77;1.67;;;;;;;;;;5070823;28;20445;-82
2022/01/31 10:26:56;;;;;;;3.73;2.40;;;;;;;;;;5068542;28;20429;-80
2022/01/31 10:29:24;;;;;;;2.33;2.13;;;;;;;;;;5074995;28;20468;-81
2022/01/31 10:31:54;;;;;;;2.30;2.10;;;;;;;;;;5077048;28;20464;-80
2022/01/31 10:34:24;;;;;;;2.23;2.03;;;;;;;;;;5079161;28;20449;-79
2022/01/31 10:36:52;;;;;;;3.10;1.90;;;;;;;;;;5078724;28;20535;-80
2022/01/31 10:45:26;;;;;;;3.90;2.40;;;;;;;;;;5080043;28;20409;-80
2022/01/31 10:53:40;;;;;;;2.23;2.03;;;;;;;;;;5058437;28;20917;-81
2022/01/31 10:56:07;;;;;;;2.67;2.10;;;;;;;;;;5080794;28;20936;-80
2022/01/31 10:58:34;;;;;;;3.30;1.90;;;;;;;;;;5080211;28;20457;-81
2022/01/31 11:01:12;;;;;;;3.10;2.37;;;;;;;;;;5080178;28;20436;-80
2022/01/31 11:03:40;;;;;;;2.47;2.27;;;;;;;;;;5081666;28;20434;-83
2022/01/31 11:06:09;;;;;;;3.23;1.90;;;;;;;;;;5081068;28;20450;-83
2022/01/31 11:08:36;;;;;;;4.57;2.60;;;;;;;;;;5080312;28;20486;-83
2022/01/31 11:11:05;;;;;;;4.80;2.37;;;;;;;;;;5080548;28;20429;-83
2022/01/31 11:13:33;;;;;;;2.10;2.00;;;;;;;;;;5080942;28;20452;-82
2022/01/31 11:16:00;;;;;;;3.77;2.57;;;;;;;;;;5080514;28;20528;-82
2022/01/31 11:18:30;;;;;;;2.20;1.93;;;;;;;;;;5080979;28;20469;-83
2022/01/31 11:20:59;;;;;;;3.23;2.30;;;;;;;;;;5081536;28;20448;-81
2022/01/31 11:23:28;;;;;;;8.70;2.00;;;;;;;;;;5080966;28;20448;-82
2022/01/31 11:25:57;;;;;;;2.07;1.97;;;;;;;;;;5080702;28;20433;-82
2022/01/31 11:28:28;;;;;;;3.63;2.00;;;;;;;;;;5081173;28;20468;-81
2022/01/31 11:30:56;;;;;;;2.87;2.07;;;;;;;;;;5080032;28;20455;-81
2022/01/31 11:33:24;;;;;;;2.40;2.00;;;;;;;;;;5080801;28;20507;-81
2022/01/31 11:35:53;;;;;;;2.70;2.50;;;;;;;;;;5080297;28;20471;-81
2022/01/31 11:38:20;;;;;;;4.17;2.33;;;;;;;;;;5080524;28;20503;-83
2022/01/31 11:40:48;;;;;;;2.13;1.93;;;;;;;;;;5080293;28;20457;-80
2022/01/31 11:43:15;;;;;;;4.00;1.90;;;;;;;;;;5079915;28;20432;-81
2022/01/31 11:45:45;;;;;;;2.33;2.20;;;;;;;;;;5079797;28;20618;-82
2022/01/31 11:48:14;;;;;;;2.30;2.00;;;;;;;;;;5078098;28;20469;-81
2022/01/31 11:50:45;;;;;;;2.33;1.80;;;;;;;;;;5074849;28;20866;-80
2022/01/31 11:53:12;;;;;;;2.30;2.10;;;;;;;;;;5076322;28;20472;-82
2022/01/31 11:55:40;;;;;;;2.63;1.87;;;;;;;;;;5072018;28;20940;-83
2022/01/31 11:58:08;;;;;;;3.63;2.23;;;;;;;;;;5076930;28;20430;-82
2022/01/31 12:00:37;;;;;;;1.83;1.50;;;;;;;;;;5077093;28;20441;-82
2022/01/31 12:03:07;;;;;;;1.90;1.60;;;;;;;;;;5077267;28;20842;-82
2022/01/31 12:05:36;;;;;;;2.33;2.13;;;;;;;;;;5076941;28;20976;-81
2022/01/31 12:08:04;;;;;;;2.80;2.50;;;;;;;;;;5071797;28;20453;-83
2022/01/31 12:10:34;;;;;;;4.77;2.30;;;;;;;;;;5069278;28;20449;-82
2022/01/31 12:13:11;;;;;;;2.40;2.20;;;;;;;;;;5073968;28;20465;-81
2022/01/31 12:15:56;;;;;;;3.40;1.87;;;;;;;;;;5059227;28;20457;-83
2022/01/31 12:18:54;;;;;;;2.03;1.83;;;;;;;;;;5056732;28;20465;-82
2022/01/31 12:24:08;;;;;;;2.60;2.33;;;;;;;;;;5073582;28;20484;-81
2022/01/31 12:26:36;;;;;;;2.03;1.70;;;;;;;;;;5076509;28;20795;-81
2022/01/31 12:29:07;;;;;;;1.93;1.83;;;;;;;;;;5057512;28;20451;-81
2022/01/31 12:31:38;;;;;;;1.70;1.60;;;;;;;;;;5065933;28;20447;-81
2022/01/31 12:34:10;;;;;;;2.63;1.73;;;;;;;;;;5070617;28;20449;-81
2022/01/31 12:36:51;;;;;;;3.87;2.03;;;;;;;;;;5075508;28;20462;-80
2022/01/31 12:39:39;;;;;;;5.47;2.30;;;;;;;;;;5076021;28;20458;-81
2022/01/31 12:42:30;;;;;;;2.50;2.37;;;;;;;;;;5075893;28;20938;-81
2022/01/31 12:44:57;;;;;;;2.50;1.57;;;;;;;;;;5075933;28;20445;-82
2022/01/31 12:47:24;;;;;;;1.70;1.60;;;;;;;;;;5075755;28;20522;-81
2022/01/31 12:50:06;;;;;;;3.33;1.90;;;;;;;;;;5075867;28;20452;-81
2022/01/31 12:52:36;;;;;;;4.10;2.20;;;;;;;;;;5075558;28;20584;-82
2022/01/31 12:55:10;;;;;;;2.80;1.80;;;;;;;;;;5075929;28;20456;-82
2022/01/31 12:57:47;;;;;;;4.70;2.00;;;;;;;;;;5089226;28;20454;-82
2022/01/31 13:00:14;;;;;;;3.93;1.80;;;;;;;;;;5076622;28;20453;-82
2022/01/31 13:02:48;;;;;;;4.20;1.80;;;;;;;;;;5069838;28;20447;-81
2022/01/31 13:05:15;;;;;;;2.77;1.73;;;;;;;;;;5089389;28;20449;-80
2022/01/31 13:07:43;;;;;;;2.13;1.73;;;;;;;;;;5082265;28;20840;-80
2022/01/31 13:10:12;;;;;;;4.33;2.07;;;;;;;;;;5076611;28;20502;-81
2022/01/31 13:12:39;;;;;;;2.33;2.03;;;;;;;;;;5076526;28;20881;-82
2022/01/31 13:15:07;;;;;;;2.90;1.90;;;;;;;;;;5076572;28;20441;-81
2022/01/31 13:17:34;;;;;;;3.97;2.30;;;;;;;;;;5069631;28;20457;-80
2022/01/31 13:20:03;;;;;;;2.77;2.57;;;;;;;;;;5067908;28;20465;-80
2022/01/31 13:22:35;;;;;;;5.87;1.90;;;;;;;;;;5070753;28;20942;-80
2022/01/31 13:25:05;;;;;;;3.90;1.83;;;;;;;;;;5075868;28;20444;-80
2022/01/31 13:27:33;;;;;;;2.20;2.03;;;;;;;;;;5075791;28;20445;-80
2022/01/31 13:30:00;;;;;;;1.93;1.83;;;;;;;;;;5075075;28;20880;-81
2022/01/31 13:32:30;;;;;;;4.13;2.00;;;;;;;;;;5075483;28;20478;-80
2022/01/31 13:34:58;;;;;;;2.80;2.30;;;;;;;;;;5076831;28;20437;-81
2022/01/31 13:37:39;;;;;;;5.60;2.00;;;;;;;;;;5075636;28;20470;-82
2022/01/31 13:40:09;;;;;;;3.30;1.70;;;;;;;;;;5077184;28;20461;-81
2022/01/31 13:42:39;;;;;;;3.73;2.00;;;;;;;;;;5074246;28;20473;-81
2022/01/31 13:45:12;;;;;;;2.67;1.67;;;;;;;;;;5073562;28;20468;-81
2022/01/31 13:47:45;;;;;;;3.47;1.90;;;;;;;;;;5066685;28;20450;-81
2022/01/31 13:50:16;;;;;;;2.87;1.80;;;;;;;;;;5055224;28;20509;-82
2022/01/31 13:52:56;;;;;;;4.20;2.27;;;;;;;;;;5054164;28;20485;-81
2022/01/31 13:55:25;;;;;;;4.03;2.40;;;;;;;;;;5069032;28;20465;-81
2022/01/31 13:57:53;;;;;;;1.90;1.80;;;;;;;;;;5075098;28;20438;-81
2022/01/31 14:00:20;;;;;;;2.90;2.00;;;;;;;;;;5074841;28;21149;-82
2022/01/31 14:03:00;;;;;;;2.13;1.73;;;;;;;;;;5074897;28;20990;-81
2022/01/31 14:05:27;;;;;;;2.90;1.90;;;;;;;;;;5055535;28;20430;-81
2022/01/31 14:08:00;;;;;;;1.97;1.87;;;;;;;;;;5054351;28;20444;-81
2022/01/31 14:10:31;;;;;;;3.47;2.20;;;;;;;;;;5054706;28;20855;-81
2022/01/31 14:12:58;;;;;;;2.03;1.83;;;;;;;;;;5054974;28;20527;-82
2022/01/31 14:15:25;;;;;;;2.37;2.17;;;;;;;;;;5055216;28;20446;-81
2022/01/31 14:17:52;;;;;;;2.67;1.97;;;;;;;;;;5056152;28;20813;-82
2022/01/31 14:20:20;;;;;;;2.10;1.90;;;;;;;;;;5072824;28;20449;-81
2022/01/31 14:22:57;;;;;;;2.27;2.17;;;;;;;;;;5074326;28;20442;-81
2022/01/31 14:25:24;;;;;;;5.27;2.30;;;;;;;;;;5069198;28;20470;-81
2022/01/31 14:27:53;;;;;;;3.07;1.70;;;;;;;;;;5054858;28;20445;-80
2022/01/31 14:30:21;;;;;;;2.30;1.90;;;;;;;;;;5052614;28;20438;-81
2022/01/31 14:32:57;;;;;;;1.87;1.77;;;;;;;;;;5052955;28;20570;-82
2022/01/31 14:35:24;;;;;;;1.97;1.70;;;;;;;;;;5054662;28;20438;-81
2022/01/31 14:37:52;;;;;;;2.40;2.10;;;;;;;;;;5055638;28;20443;-81
2022/01/31 14:40:40;;;;;;;9.13;2.13;;;;;;;;;;5055526;28;20453;-81
2022/01/31 14:43:18;;;;;;;3.60;2.00;;;;;;;;;;5055242;28;20440;-81
2022/01/31 14:48:32;;;;;;;4.43;2.03;;;;;;;;;;5056554;28;20460;-82
2022/01/31 14:50:59;;;;;;;2.10;1.97;;;;;;;;;;5056106;28;20472;-82
2022/01/31 14:53:26;;;;;;;3.30;2.10;;;;;;;;;;5056001;28;20486;-82
2022/01/31 14:55:53;;;;;;;3.20;1.77;;;;;;;;;;5057422;28;20453;-81
2022/01/31 14:58:21;;;;;;;3.30;2.00;;;;;;;;;;5057122;28;20470;-84
2022/01/31 15:00:49;;;;;;;4.20;2.30;;;;;;;;;;5057885;28;20430;-83
2022/01/31 15:03:19;;;;;;;2.00;1.77;;;;;;;;;;5060568;28;20499;-84
2022/01/31 15:05:46;;;;;;;3.10;2.27;;;;;;;;;;5076111;28;20787;-82
2022/01/31 15:08:13;;;;;;;4.43;2.73;;;;;;;;;;5076742;28;20461;-82
2022/01/31 15:10:41;;;;;;;2.97;2.77;;;;;;;;;;5079220;28;20449;-83
2022/01/31 15:13:08;;;;;;;2.40;2.20;;;;;;;;;;5076471;28;20514;-83